Weather reports worldwide

Advertisment
Bealach, United Kingdom (3039): temperature & dewpoint: 16.01.2020 00:00:00 - 22.01.2020 00:00:00 (GMT)Bealach, United Kingdom (3039): wind speed & gusts: 16.01.2020 00:00:00 - 22.01.2020 00:00:00 (GMT)Bealach, United Kingdom (3039): wind direction: 16.01.2020 00:00:00 - 22.01.2020 00:00:00 (GMT)
Date & Time tt [°C] td [°C] ff [km/h] ff [kn] fx [km/h] fx [kn] dd
22.01.2020 00:00:00 - - - - - - -
21.01.2020 23:00:00 5,7 5,7 39 21 46 25 W
21.01.2020 22:00:00 5,5 5,5 31 17 - - W
21.01.2020 21:00:00 5,5 5,5 31 17 - - W
21.01.2020 20:00:00 5,5 5,5 31 17 - - WSW
21.01.2020 19:00:00 5,4 5,4 34 18 - - WSW
21.01.2020 18:00:00 5,3 5,3 31 17 - - W
21.01.2020 17:00:00 5,3 5,3 35 19 - - W
21.01.2020 16:00:00 5,2 5,2 35 19 46 25 W
21.01.2020 15:00:00 5,0 5,0 37 20 52 28 W
21.01.2020 14:00:00 5,4 5,4 35 19 50 27 WSW
21.01.2020 13:00:00 5,3 5,3 34 18 - - WSW
21.01.2020 12:00:00 5,0 5,0 29 16 - - WSW
21.01.2020 11:00:00 5,1 5,1 34 18 - - SW
21.01.2020 10:00:00 5,3 5,3 34 18 - - WSW
21.01.2020 09:00:00 5,1 5,1 29 16 - - WSW
21.01.2020 08:00:00 5,0 5,0 26 14 - - WSW
21.01.2020 07:00:00 5,1 5,1 21 11 - - W
21.01.2020 06:00:00 5,2 5,2 24 13 - - W
21.01.2020 05:00:00 5,3 5,3 28 15 - - W
21.01.2020 04:00:00 5,2 5,2 35 19 54 29 W
21.01.2020 03:00:00 5,3 5,3 46 25 70 38 W
21.01.2020 02:00:00 5,4 5,4 52 28 72 39 WSW
21.01.2020 01:00:00 4,8 4,8 50 27 70 38 WSW
21.01.2020 00:00:00 4,8 4,8 55 30 76 41 SW
20.01.2020 23:00:00 4,5 4,5 63 34 72 39 SW
20.01.2020 22:00:00 4,4 4,4 54 29 74 40 SW
20.01.2020 21:00:00 4,2 4,2 65 35 91 49 SW
20.01.2020 20:00:00 4,0 4,0 72 39 93 50 SSW
20.01.2020 19:00:00 3,9 3,9 70 38 87 47 SSW
20.01.2020 18:00:00 3,8 3,8 68 37 91 49 SSW
20.01.2020 17:00:00 3,8 3,8 76 41 94 51 SSW
20.01.2020 16:00:00 3,8 3,8 70 38 87 47 SSW
20.01.2020 15:00:00 3,7 3,7 68 37 94 51 SSW
20.01.2020 14:00:00 3,7 3,7 72 39 96 52 SSW
20.01.2020 13:00:00 3,7 3,7 83 45 100 54 SSW
20.01.2020 12:00:00 3,6 3,6 78 42 94 51 SSW
20.01.2020 11:00:00 3,5 3,5 67 36 89 48 SSW
20.01.2020 10:00:00 3,5 3,5 70 38 83 45 S
20.01.2020 09:00:00 3,6 3,6 65 35 96 52 SSW
20.01.2020 08:00:00 3,5 3,5 78 42 102 55 SSW
20.01.2020 07:00:00 3,5 3,5 74 40 91 49 SSW
20.01.2020 06:00:00 3,6 3,6 67 36 91 49 SSW
20.01.2020 05:00:00 3,5 3,5 76 41 93 50 SSW
20.01.2020 04:00:00 3,4 3,4 83 45 104 56 SSW
20.01.2020 03:00:00 3,3 3,3 91 49 106 57 SSW
20.01.2020 02:00:00 3,1 3,1 78 42 94 51 SSW
20.01.2020 01:00:00 3,0 3,0 74 40 91 49 SSW
20.01.2020 00:00:00 2,8 2,8 52 28 76 41 SSW
19.01.2020 23:00:00 2,8 2,8 52 28 80 43 SSW
19.01.2020 22:00:00 2,5 2,5 57 31 91 49 S
19.01.2020 21:00:00 2,3 2,3 65 35 87 47 S
19.01.2020 20:00:00 2,2 2,2 68 37 91 49 SSW
19.01.2020 19:00:00 2,2 2,2 76 41 102 55 SSW
19.01.2020 18:00:00 2,0 2,0 80 43 98 53 SSW
19.01.2020 17:00:00 1,6 1,6 74 40 100 54 SSW
19.01.2020 16:00:00 1,4 1,4 80 43 98 53 SSW
19.01.2020 15:00:00 1,2 1,2 78 42 100 54 SSW
19.01.2020 14:00:00 1,0 1,0 87 47 100 54 SSW
19.01.2020 13:00:00 0,9 0,9 80 43 98 53 SSW
19.01.2020 12:00:00 0,3 0,3 67 36 94 51 S
19.01.2020 11:00:00 0,0 0,0 72 39 89 48 S
19.01.2020 10:00:00 0,9 0,9 68 37 85 46 S
19.01.2020 09:00:00 1,3 1,3 54 29 68 37 S
19.01.2020 08:00:00 1,3 1,3 48 26 65 35 SSW
19.01.2020 07:00:00 1,2 1,2 52 28 63 34 SSW
19.01.2020 06:00:00 0,8 0,8 48 26 61 33 SSW
19.01.2020 05:00:00 0,0 0,0 39 21 46 25 SSW
19.01.2020 04:00:00 -0,2 -0,2 34 18 46 25 SW
19.01.2020 03:00:00 -0,4 -0,4 29 16 - - SW
19.01.2020 02:00:00 -0,5 -0,5 31 17 - - WSW
19.01.2020 01:00:00 -0,5 -0,5 34 18 - - WSW
19.01.2020 00:00:00 -0,6 -0,6 31 17 - - WSW
18.01.2020 23:00:00 -1,0 -1,0 29 16 - - SW
18.01.2020 22:00:00 -0,8 -0,8 24 13 - - WSW
18.01.2020 21:00:00 -0,7 -0,7 26 14 - - W
18.01.2020 20:00:00 -0,6 -0,6 26 14 - - WNW
18.01.2020 19:00:00 -0,4 -0,4 29 16 - - WNW
18.01.2020 18:00:00 -0,4 -0,4 34 18 46 25 WNW
18.01.2020 17:00:00 -0,5 -0,5 31 17 - - WNW
18.01.2020 16:00:00 -0,8 -0,8 29 16 - - WNW
18.01.2020 15:00:00 -0,7 -0,7 34 18 46 25 NW
18.01.2020 14:00:00 -0,8 -0,8 34 18 55 30 NW
18.01.2020 13:00:00 -1,0 -1,0 41 22 57 31 NW
18.01.2020 12:00:00 -1,0 -1,0 46 25 63 34 NW
18.01.2020 11:00:00 -1,1 -1,1 46 25 63 34 NW
18.01.2020 10:00:00 -1,3 -1,3 50 27 67 36 WNW
18.01.2020 09:00:00 -1,8 -1,8 46 25 68 37 NW
18.01.2020 08:00:00 -2,0 -2,0 46 25 81 44 NW
18.01.2020 07:00:00 -1,8 -1,8 50 27 72 39 WNW
18.01.2020 06:00:00 -1,6 -1,6 46 25 65 35 WNW
18.01.2020 05:00:00 -1,5 -1,5 59 32 76 41 WNW
18.01.2020 04:00:00 -1,3 -1,3 48 26 61 33 W
18.01.2020 03:00:00 -1,8 -1,8 50 27 72 39 WNW
18.01.2020 02:00:00 -1,9 -1,9 42 23 74 40 NW
18.01.2020 01:00:00 -1,6 -1,6 54 29 78 42 NW
18.01.2020 00:00:00 -1,5 -1,5 63 34 98 53 NW
17.01.2020 23:00:00 -1,5 -1,5 63 34 89 48 NW
17.01.2020 22:00:00 -1,3 -1,3 52 28 83 45 WNW
17.01.2020 21:00:00 -1,6 -1,6 59 32 78 42 WNW
17.01.2020 20:00:00 -1,4 -1,4 41 22 57 31 W
17.01.2020 19:00:00 -0,9 -0,9 42 23 57 31 W
17.01.2020 18:00:00 -0,2 -0,2 48 26 63 34 WNW
17.01.2020 17:00:00 -0,1 -0,1 48 26 61 33 W
17.01.2020 16:00:00 0,0 0,0 48 26 65 35 WNW
17.01.2020 15:00:00 0,0 0,0 50 27 68 37 W
17.01.2020 14:00:00 0,1 0,1 44 24 70 38 W
17.01.2020 13:00:00 0,7 0,7 52 28 68 37 W
17.01.2020 12:00:00 0,3 0,3 57 31 70 38 WSW
17.01.2020 11:00:00 0,3 0,3 50 27 65 35 WSW
17.01.2020 10:00:00 -0,1 -0,1 44 24 59 32 WSW
17.01.2020 09:00:00 -0,2 -0,2 44 24 100 54 SW
17.01.2020 08:00:00 -0,1 -0,1 78 42 96 52 SSW
17.01.2020 07:00:00 0,0 0,0 70 38 107 58 SSW
17.01.2020 06:00:00 -0,7 -0,7 91 49 119 64 SSW
17.01.2020 05:00:00 0,4 0,4 83 45 106 57 SSW
17.01.2020 04:00:00 0,4 0,4 68 37 122 66 SSW
17.01.2020 03:00:00 0,3 0,3 85 46 122 66 SSW
17.01.2020 02:00:00 0,6 0,6 98 53 131 71 SSW
17.01.2020 01:00:00 1,0 1,0 98 53 133 72 SSW
17.01.2020 00:00:00 1,1 1,1 93 50 126 68 SSW
16.01.2020 23:00:00 1,5 1,5 80 43 120 65 SSW
16.01.2020 22:00:00 1,4 1,4 44 24 96 52 S
16.01.2020 21:00:00 1,4 1,4 39 21 94 51 S
16.01.2020 20:00:00 1,7 1,7 54 29 89 48 S
16.01.2020 19:00:00 2,5 2,5 70 38 87 47 SSW
16.01.2020 18:00:00 1,7 1,7 28 15 70 38 SE
16.01.2020 17:00:00 1,8 1,8 16 9 67 36 ESE
16.01.2020 16:00:00 2,3 2,3 21 11 80 43 SE
16.01.2020 15:00:00 3,4 3,4 16 9 54 29 E
16.01.2020 14:00:00 3,0 3,0 16 9 81 44 E
16.01.2020 13:00:00 2,9 2,9 52 28 67 36 SSE
16.01.2020 12:00:00 3,1 3,1 35 19 91 49 SSE
16.01.2020 11:00:00 3,1 3,1 54 29 85 46 SSE
16.01.2020 10:00:00 2,2 2,2 46 25 72 39 SSE
16.01.2020 09:00:00 1,1 1,1 35 19 63 34 SE
16.01.2020 08:00:00 0,6 0,6 35 19 76 41 SE
16.01.2020 07:00:00 0,5 0,5 35 19 78 42 SSE
16.01.2020 06:00:00 0,9 0,9 39 21 80 43 S
16.01.2020 05:00:00 0,4 0,4 28 15 76 41 S
16.01.2020 04:00:00 0,3 0,3 57 31 94 51 S
16.01.2020 03:00:00 0,8 0,8 63 34 89 48 S
16.01.2020 02:00:00 1,1 1,1 61 33 76 41 SSW
16.01.2020 01:00:00 -0,2 -0,2 50 27 81 44 SW
16.01.2020 00:00:00 0,8 0,8 70 38 85 46 SSW

tt = temperature
td = dewpoint
ff = wind speed
fx = gusts
dd = wind direction

Next stations